Meriden, Minnesota
Current Conditions -  °F | °C
As of 1:14 AM on Saturday 25 Oct 2014 (Local Time) from KACQ Reporting Station
Clear Clear  
Wind Chill: 43°   Ceiling: Unl
Heat Index: 43°   Visibility: 10mi
Dew Point: 36°   Wind: 3mph
Humidity: 76%   Direction: 270°W
Pressure: 29.96"   Gusts: NA
Location:  44.0806°N, 93.5062°W
Report Text: KACQ 250614Z AUTO 27003KT 10SM CLR 06/02 A2996 RMK AO2
Loading
Personal Weather Stations






























Interactive Weather Map
Tropical Storm Tracking
New forecast layout! Learn more

10-Day Weather Forecast

Advertisements
Track Severe Weather on mobile